الصفحة الرئيسية
METAR-TAF:

METAR-TAF

مطار :

ألاموغوردو / Holloman, نيومكسيكو, الولايات المتحدة

دائرة عرض: 32-51N, خط طول: 106-06W, ارتفاع: 1248 متر

مراقبة الطقس الحالي

تاريخ ووقت الإصدار 1ساعة و 0 دقيقة قبل الساعة 01:58UTC
ريح 6 عقدة من الشمال/الشمال الشرقي
درجة الحرارة 7°درجة مئوية
الرطوبة 76%
ضغط 1020 hPa
الرؤية: 16.1 كم
سماء صافية

METAR: KHMN 230158Z AUTO 03006KT 10SM CLR 07/03 A3012 RMK AO2 SLP189 T00710028 $

زمن: 19:58 (02:58 UTC)

توقعات

تاريخ ووقت الإصدار 9ساعات و 58 دقيقة قبل الساعة 17:00UTC
التوقعات صالحة من22 الساعة 17 UTC إلى 23 الساعة 23 UTC
ريح 6 عقدةمن اتجاهات متغيرة
الرؤية 10 كم أو أكثر
غيوم قليلة على ارتفاع 7000 قدم

TAF: KHMN 221700Z 2217/2323 VRB06KT 9999 FEW070 QNH3010INS TX13/2221Z TN01/2314Z

أرصاد الطقس والتوقعات من أكثر من 4000 مطار (تقارير الطقس للمطار METAR والتنبؤ بالطقس بالمطارTAF).

المحطات المتاحة هي النقط الصفراء والحمراء على الخريطة.

حرك المؤشر فوق النقطة لمعرفة اسم المحطة.

ثم انقر لمعرفة أرصاد وتوقعات الطقس.

لتغيير الخارطة: اضغط على الأزرار الخضراء مع رمز الصليب الأسود للتكبير. على الزر الأخضر مع شرطة للتصغير، أو على الأسهم الخضراء للخرائط المجاورة.


METAR-TAF: